Date,TemperatureHighF,TemperatureAvgF,TemperatureLowF,DewpointHighF,DewpointAvgF,DewpointLowF,HumidityHigh,HumidityAvg,HumidityLow,PressureMaxIn,PressureMinIn,WindSpeedMaxMPH,WindSpeedAvgMPH,GustSpeedMaxMPH,PrecipitationSumIn
2013-4-1,44.9,39.7,30.3,31.9,26.9,21.0,87,61,41,29.94,29.00,24,13,24,0.00
2013-4-2,47.2,41.8,32.5,30.2,26.1,22.4,80,55,38,30.01,29.00,34,15,35,0.00
2013-4-3,46.3,41.8,32.9,30.6,26.2,24.0,76,54,43,30.08,29.00,29,15,29,0.00
2013-4-4,41.2,38.8,35.0,32.7,30.3,28.0,77,71,66,29.99,29.00,22,12,22,0.00
2013-4-5,46.1,39.4,34.0,32.8,30.1,27.8,80,70,52,30.01,29.00,32,12,32,0.00
2013-4-6,48.8,43.4,35.7,31.3,28.8,25.9,84,57,45,30.24,30.00,15,7,15,0.00
2013-4-7,48.7,45.1,35.5,35.5,29.8,25.0,89,56,43,30.24,30.00,12,4,12,0.00
2013-4-8,50.3,45.1,36.4,35.2,33.4,29.0,86,64,51,30.01,29.00,21,10,21,0.00
2013-4-9,50.7,46.5,36.9,43.4,40.7,31.6,88,80,63,29.62,29.00,18,5,18,0.01
2013-4-10,47.0,41.7,38.4,43.3,38.5,34.0,94,89,83,29.71,29.00,6,2,15,0.04
2013-4-11,47.5,42.6,38.2,46.4,40.9,34.8,97,94,87,29.69,29.00,20,7,20,0.29
2013-4-12,51.3,46.9,39.9,48.8,44.6,38.9,97,92,82,29.58,29.00,25,8,25,0.43
2013-4-13,57.7,51.8,40.7,48.0,44.4,39.4,95,77,56,30.03,29.00,22,9,22,0.43
2013-4-14,63.7,56.2,50.0,55.3,53.1,48.0,95,90,73,30.08,30.00,46,16,46,0.04
2013-4-15,65.8,58.5,53.3,54.9,50.1,45.9,85,74,64,30.09,29.97,22,5,47,0.02
2013-4-16,60.6,53.8,47.8,50.7,47.7,44.4,89,80,64,30.08,29.99,22,11,30,0.00
2013-4-17,68.6,61.6,48.8,56.3,52.0,45.9,92,72,51,30.13,29.00,22,8,22,0.00
2013-4-18,65.4,54.2,48.1,52.8,43.6,40.6,82,68,57,29.99,29.00,40,22,40,0.00
2013-4-19,53.1,47.3,40.7,45.6,41.4,37.0,92,80,64,30.44,29.99,20,9,20,0.01
2013-4-20,52.3,44.1,37.3,38.5,36.1,34.0,92,75,55,30.52,30.00,20,7,20,0.00
2013-4-21,57.7,49.5,42.1,40.9,37.5,34.3,86,64,43,30.20,30.00,13,4,13,0.00
2013-4-22,57.9,53.0,39.7,43.9,41.9,34.3,88,67,53,30.02,29.00,22,11,22,0.00
2013-4-23,58.6,53.8,49.0,50.0,46.9,40.8,94,78,63,30.22,29.95,21,8,21,0.02
2013-4-24,65.3,52.9,49.7,52.0,48.0,46.4,89,83,59,30.24,30.19,22,6,29,0.00
2013-4-25,67.3,61.4,51.9,55.1,52.1,48.8,90,72,64,30.22,29.97,16,6,16,0.00
2013-4-26,60.7,47.7,42.3,50.7,43.7,38.1,93,86,69,29.98,29.83,15,6,15,0.09
2013-4-27,50.9,44.7,39.7,38.5,36.9,34.8,90,75,57,30.01,29.83,17,5,17,0.00
2013-4-28,53.6,49.7,39.8,40.6,37.2,27.2,88,63,44,30.05,29.90,14,6,14,0.00
2013-4-29,53.6,51.2,45.9,44.0,40.2,37.3,92,67,57,30.05,29.85,21,12,35,0.12
2013-4-30,55.0,49.7,44.0,42.9,41.0,38.5,86,72,60,30.29,30.09,23,8,24,0.00